createdAt,value
2023-04-30T00:00:19.358Z,70.63
2023-04-30T00:02:23.610Z,70.50
2023-04-30T00:03:23.506Z,71.30
2023-04-30T00:05:27.461Z,71.30
2023-04-30T00:06:28.576Z,70.92
2023-04-30T00:08:31.510Z,71.36
2023-04-30T00:09:31.553Z,71.26
2023-04-30T00:11:35.565Z,71.45
2023-04-30T00:12:35.590Z,71.26
2023-04-30T00:14:39.672Z,71.26
2023-04-30T00:15:39.652Z,71.26
2023-04-30T00:17:32.689Z,71.26
2023-04-30T00:18:32.632Z,71.17
2023-04-30T00:20:36.664Z,70.88
2023-04-30T00:21:36.682Z,70.97
2023-04-30T00:23:40.757Z,70.97
2023-04-30T00:24:40.747Z,71.07
2023-04-30T00:26:44.821Z,70.88
2023-04-30T00:27:44.812Z,70.97
2023-04-30T00:29:38.054Z,70.97
2023-04-30T00:30:38.067Z,71.36
2023-04-30T00:32:31.831Z,71.93
2023-04-30T00:33:31.409Z,71.55
2023-04-30T00:35:35.461Z,71.73
2023-04-30T00:36:35.459Z,71.64
2023-04-30T00:38:39.494Z,71.73
2023-04-30T00:39:39.518Z,71.73
2023-04-30T00:41:43.589Z,71.55
2023-04-30T00:42:43.575Z,71.83
2023-04-30T00:44:47.649Z,72.02
2023-04-30T00:45:47.711Z,71.80
2023-04-30T00:47:51.901Z,72.41
2023-04-30T00:48:51.901Z,72.12
2023-04-30T00:51:07.222Z,72.12
2023-04-30T00:52:07.260Z,71.98
2023-04-30T00:54:11.451Z,72.17
2023-04-30T00:55:11.473Z,72.37
2023-04-30T00:57:04.411Z,72.08
2023-04-30T00:58:04.436Z,72.75
2023-04-30T01:00:08.474Z,72.75
2023-04-30T01:01:08.542Z,72.75
2023-04-30T01:03:12.665Z,72.46
2023-04-30T01:04:12.627Z,73.22
2023-04-30T01:06:16.672Z,73.32
2023-04-30T01:07:16.696Z,72.85
2023-04-30T01:09:20.717Z,73.80
2023-04-30T01:10:20.739Z,73.32
2023-04-30T01:12:24.827Z,73.32
2023-04-30T01:13:24.801Z,73.41
2023-04-30T01:15:28.866Z,73.99
2023-04-30T01:16:28.967Z,74.18
2023-04-30T01:18:32.972Z,73.80
2023-04-30T01:19:32.920Z,73.89
2023-04-30T01:21:36.960Z,74.37
2023-04-30T01:22:36.988Z,74.37
2023-04-30T01:24:41.035Z,74.27
2023-04-30T01:25:41.083Z,74.65
2023-04-30T01:27:34.055Z,74.27
2023-04-30T01:28:34.045Z,74.65
2023-04-30T01:30:38.083Z,74.27
2023-04-30T01:31:38.133Z,74.65
2023-04-30T01:33:42.156Z,74.94
2023-04-30T01:34:42.145Z,74.62
2023-04-30T01:36:46.182Z,74.90
2023-04-30T01:37:46.216Z,75.47
2023-04-30T01:39:50.244Z,75.38
2023-04-30T01:40:50.275Z,75.19
2023-04-30T01:42:54.308Z,75.19
2023-04-30T01:43:54.332Z,75.47
2023-04-30T01:45:58.409Z,75.57
2023-04-30T01:46:58.395Z,75.57
2023-04-30T01:49:03.057Z,75.76
2023-04-30T01:50:02.643Z,75.67
2023-04-30T01:52:06.668Z,75.76
2023-04-30T01:53:06.730Z,76.14
2023-04-30T01:55:22.102Z,76.23
2023-04-30T01:56:22.093Z,76.52
2023-04-30T01:58:26.137Z,76.33
2023-04-30T01:59:26.155Z,76.14
2023-04-30T02:01:30.202Z,76.42
2023-04-30T02:02:30.260Z,76.23
2023-04-30T02:04:34.252Z,76.71
2023-04-30T02:05:34.272Z,77.00
2023-04-30T02:07:27.260Z,76.90
2023-04-30T02:08:27.248Z,76.61
2023-04-30T02:10:31.281Z,76.67
2023-04-30T02:11:31.303Z,76.61
2023-04-30T02:13:35.340Z,76.90
2023-04-30T02:14:35.368Z,76.71
2023-04-30T02:16:39.431Z,76.71
2023-04-30T02:17:39.423Z,76.61
2023-04-30T02:19:43.449Z,76.90
2023-04-30T02:20:43.472Z,76.90
2023-04-30T02:22:47.544Z,76.90
2023-04-30T02:23:47.568Z,76.90
2023-04-30T02:25:51.598Z,76.48
2023-04-30T02:26:51.624Z,76.52
2023-04-30T02:28:55.783Z,77.09
2023-04-30T02:29:55.909Z,77.66
2023-04-30T02:31:59.751Z,77.24
2023-04-30T02:32:59.787Z,77.34
2023-04-30T02:35:03.817Z,77.53
2023-04-30T02:36:03.803Z,77.34
2023-04-30T02:38:07.843Z,77.53
2023-04-30T02:39:07.872Z,77.72
2023-04-30T02:41:11.890Z,77.24
2023-04-30T02:42:11.924Z,77.62
2023-04-30T02:44:15.941Z,77.53
2023-04-30T02:45:15.973Z,77.81
2023-04-30T02:47:08.960Z,77.81
2023-04-30T02:48:09.001Z,78.38
2023-04-30T02:50:13.014Z,77.81
2023-04-30T02:51:13.033Z,78.67
2023-04-30T02:53:17.083Z,78.48
2023-04-30T02:54:17.092Z,78.48
2023-04-30T02:56:21.116Z,78.77
2023-04-30T02:57:21.141Z,78.57
2023-04-30T02:59:25.231Z,78.96
2023-04-30T03:00:25.206Z,79.24
2023-04-30T03:02:29.283Z,78.86
2023-04-30T03:03:29.290Z,79.14
2023-04-30T03:05:33.318Z,78.96
2023-04-30T03:06:33.348Z,79.14
2023-04-30T03:08:37.450Z,79.33
2023-04-30T03:09:37.406Z,79.33
2023-04-30T03:11:41.434Z,79.81
2023-04-30T03:12:41.438Z,79.33
2023-04-30T03:14:45.465Z,79.33
2023-04-30T03:15:45.485Z,79.33
2023-04-30T03:17:38.454Z,79.62
2023-04-30T03:18:38.467Z,79.33
2023-04-30T03:20:42.524Z,80.29
2023-04-30T03:21:42.526Z,80.10
2023-04-30T03:23:46.575Z,80.00
2023-04-30T03:24:46.593Z,79.81
2023-04-30T03:26:50.622Z,79.77
2023-04-30T03:27:50.649Z,79.86
2023-04-30T03:29:55.012Z,79.43
2023-04-30T03:30:54.726Z,79.96
2023-04-30T03:32:58.776Z,79.96
2023-04-30T03:33:58.857Z,79.68
2023-04-30T03:36:02.899Z,80.15
2023-04-30T03:37:02.925Z,80.05
2023-04-30T03:38:02.956Z,80.05
2023-04-30T03:39:03.040Z,79.86
2023-04-30T03:40:03.014Z,80.15
2023-04-30T03:41:03.042Z,80.05
2023-04-30T03:42:03.074Z,79.96
2023-04-30T03:43:03.100Z,80.44
2023-04-30T03:44:03.126Z,80.24
2023-04-30T03:45:03.161Z,80.24
2023-04-30T03:46:03.224Z,80.15
2023-04-30T03:47:03.218Z,79.86
2023-04-30T03:48:03.335Z,80.15
2023-04-30T03:49:03.273Z,79.86
2023-04-30T03:50:03.300Z,80.15
2023-04-30T03:51:03.325Z,80.05
2023-04-30T03:52:03.367Z,80.15
2023-04-30T03:53:03.386Z,80.15
2023-04-30T03:54:03.413Z,81.01
2023-04-30T03:55:03.447Z,79.96
2023-04-30T03:56:03.480Z,80.15
2023-04-30T03:57:03.498Z,80.34
2023-04-30T03:58:03.530Z,80.05
2023-04-30T03:59:03.573Z,80.05
2023-04-30T04:00:03.610Z,80.34
2023-04-30T04:01:03.614Z,80.05
2023-04-30T04:02:03.690Z,80.63
2023-04-30T04:03:03.712Z,80.72
2023-04-30T04:04:03.725Z,80.82
2023-04-30T04:05:03.728Z,80.82
2023-04-30T04:06:03.805Z,80.91
2023-04-30T04:07:03.799Z,80.63
2023-04-30T04:08:03.830Z,80.91
2023-04-30T04:09:03.860Z,80.63
2023-04-30T04:10:03.874Z,80.63
2023-04-30T04:11:03.902Z,80.63
2023-04-30T04:12:03.940Z,80.53
2023-04-30T04:13:03.958Z,80.91
2023-04-30T04:14:03.990Z,80.53
2023-04-30T04:15:04.017Z,80.53
2023-04-30T04:16:04.088Z,80.34
2023-04-30T04:17:04.074Z,80.24
2023-04-30T04:18:04.182Z,80.34
2023-04-30T04:19:04.154Z,80.34
2023-04-30T04:20:04.168Z,80.24
2023-04-30T04:21:04.190Z,80.34
2023-04-30T04:22:04.221Z,80.15
2023-04-30T04:23:04.262Z,79.58
2023-04-30T04:24:04.274Z,79.68
2023-04-30T04:25:04.300Z,80.24
2023-04-30T04:26:04.332Z,80.24
2023-04-30T04:27:04.365Z,80.15
2023-04-30T04:28:04.398Z,80.15
2023-04-30T04:29:04.422Z,79.11
2023-04-30T04:30:04.448Z,79.96
2023-04-30T04:31:04.473Z,80.15
2023-04-30T04:32:04.610Z,79.96
2023-04-30T04:33:04.572Z,79.96
2023-04-30T04:34:04.641Z,80.05
2023-04-30T04:35:04.588Z,79.39
2023-04-30T04:36:04.614Z,80.05
2023-04-30T04:37:04.643Z,79.77
2023-04-30T04:38:04.684Z,79.96
2023-04-30T04:39:04.701Z,80.15
2023-04-30T04:40:04.761Z,80.05
2023-04-30T04:41:04.756Z,80.05
2023-04-30T04:42:04.782Z,79.39
2023-04-30T04:43:04.820Z,79.49
2023-04-30T04:44:04.875Z,80.15
2023-04-30T04:45:04.871Z,80.15
2023-04-30T04:46:04.939Z,80.05
2023-04-30T04:47:04.925Z,80.05
2023-04-30T04:48:04.979Z,79.86
2023-04-30T04:49:04.992Z,80.24
2023-04-30T04:50:05.047Z,79.86
2023-04-30T04:51:05.046Z,79.96
2023-04-30T04:52:05.071Z,80.05
2023-04-30T04:53:05.100Z,79.77
2023-04-30T04:54:05.128Z,80.05
2023-04-30T04:55:05.154Z,80.24
2023-04-30T04:56:05.198Z,80.15
2023-04-30T04:57:05.221Z,80.15
2023-04-30T04:58:05.239Z,79.30
2023-04-30T04:59:05.282Z,79.58
2023-04-30T05:00:05.301Z,79.49
2023-04-30T05:01:05.332Z,79.39
2023-04-30T05:02:05.419Z,79.01
2023-04-30T05:03:05.501Z,78.91
2023-04-30T05:04:05.463Z,78.91
2023-04-30T05:05:05.442Z,78.82
2023-04-30T05:06:05.503Z,79.01
2023-04-30T05:07:05.508Z,78.82
2023-04-30T05:08:05.534Z,78.91
2023-04-30T05:09:05.558Z,79.01
2023-04-30T05:10:05.599Z,79.30
2023-04-30T05:11:05.615Z,78.82
2023-04-30T05:12:05.641Z,79.11
2023-04-30T05:13:05.674Z,78.72
2023-04-30T05:14:05.698Z,78.82
2023-04-30T05:15:05.727Z,78.91
2023-04-30T05:16:05.806Z,79.24
2023-04-30T05:17:05.789Z,78.82
2023-04-30T05:18:05.872Z,78.82
2023-04-30T05:19:05.851Z,78.96
2023-04-30T05:20:05.875Z,78.86
2023-04-30T05:21:05.930Z,78.96
2023-04-30T05:22:05.938Z,78.91
2023-04-30T05:23:05.961Z,79.24
2023-04-30T05:24:05.983Z,78.86
2023-04-30T05:25:06.031Z,79.05
2023-04-30T05:26:06.073Z,78.67
2023-04-30T05:27:06.070Z,78.48
2023-04-30T05:28:06.102Z,78.57
2023-04-30T05:29:06.141Z,78.86
2023-04-30T05:30:06.201Z,78.57
2023-04-30T05:31:06.200Z,79.14
2023-04-30T05:32:06.274Z,78.77
2023-04-30T05:33:06.312Z,79.14
2023-04-30T05:34:06.279Z,79.14
2023-04-30T05:35:06.302Z,78.57
2023-04-30T05:36:06.336Z,78.38
2023-04-30T05:37:06.357Z,78.57
2023-04-30T05:38:06.390Z,78.48
2023-04-30T05:39:06.417Z,78.48
2023-04-30T05:40:06.453Z,78.57
2023-04-30T05:41:06.473Z,78.48
2023-04-30T05:42:06.504Z,78.57
2023-04-30T05:43:06.532Z,78.57
2023-04-30T05:44:06.603Z,78.38
2023-04-30T05:45:06.591Z,78.57
2023-04-30T05:46:06.804Z,78.57
2023-04-30T05:47:06.650Z,78.29
2023-04-30T05:48:06.773Z,78.19
2023-04-30T05:49:06.705Z,77.91
2023-04-30T05:50:06.735Z,77.91
2023-04-30T05:51:06.784Z,77.43
2023-04-30T05:52:06.798Z,77.34
2023-04-30T05:53:06.824Z,77.81
2023-04-30T05:54:06.864Z,77.62
2023-04-30T05:55:06.882Z,77.62
2023-04-30T05:56:06.908Z,77.24
2023-04-30T05:57:06.942Z,77.05
2023-04-30T05:58:06.974Z,77.00
2023-04-30T05:59:07.029Z,76.67
2023-04-30T06:00:07.071Z,76.67
2023-04-30T06:01:07.055Z,76.71
2023-04-30T06:02:07.151Z,76.71
2023-04-30T06:03:07.174Z,76.52
2023-04-30T06:04:07.146Z,76.61
2023-04-30T06:05:07.238Z,76.04
2023-04-30T06:06:07.260Z,76.42
2023-04-30T06:07:07.230Z,76.52
2023-04-30T06:08:07.261Z,76.52
2023-04-30T06:09:07.299Z,76.14
2023-04-30T06:10:07.320Z,76.14
2023-04-30T06:11:07.348Z,75.76
2023-04-30T06:12:07.411Z,75.85
2023-04-30T06:13:07.406Z,75.67
2023-04-30T06:14:07.434Z,75.57
2023-04-30T06:15:07.464Z,75.38
2023-04-30T06:16:07.532Z,74.90
2023-04-30T06:17:07.530Z,75.19
2023-04-30T06:18:07.627Z,74.90
2023-04-30T06:19:07.579Z,74.80
2023-04-30T06:20:07.621Z,74.80
2023-04-30T06:21:07.643Z,74.90
2023-04-30T06:22:07.685Z,74.99
2023-04-30T06:23:07.698Z,74.90
2023-04-30T06:24:07.738Z,74.84
2023-04-30T06:25:07.755Z,74.56
2023-04-30T06:26:07.786Z,74.27
2023-04-30T06:27:07.817Z,74.27
2023-04-30T06:28:07.843Z,74.27
2023-04-30T06:29:07.880Z,74.37
2023-04-30T06:30:07.908Z,74.43
2023-04-30T06:31:08.028Z,74.37
2023-04-30T06:32:08.631Z,73.89
2023-04-30T06:33:08.016Z,73.61
2023-04-30T06:34:08.020Z,73.32
2023-04-30T06:35:08.051Z,73.51
2023-04-30T06:36:08.081Z,73.13
2023-04-30T06:37:08.107Z,73.22
2023-04-30T06:38:08.141Z,72.85
2023-04-30T06:39:08.166Z,73.41
2023-04-30T06:40:08.198Z,73.41
2023-04-30T06:41:08.234Z,72.94
2023-04-30T06:42:08.256Z,73.51
2023-04-30T06:43:08.289Z,73.51
2023-04-30T06:44:08.323Z,72.94
2023-04-30T06:45:08.347Z,72.75
2023-04-30T06:46:08.396Z,72.17
2023-04-30T06:47:08.403Z,72.17
2023-04-30T06:48:08.506Z,71.89
2023-04-30T06:49:08.466Z,72.17
2023-04-30T06:50:08.495Z,72.17
2023-04-30T06:51:10.484Z,71.98
2023-04-30T06:52:08.560Z,72.08
2023-04-30T06:53:08.581Z,71.51
2023-04-30T06:54:08.612Z,71.64
2023-04-30T06:55:08.647Z,70.97
2023-04-30T06:56:08.674Z,71.07
2023-04-30T06:57:08.700Z,71.07
2023-04-30T06:58:08.732Z,71.07
2023-04-30T06:59:08.760Z,71.07
2023-04-30T07:00:08.887Z,70.69
2023-04-30T07:01:08.872Z,71.36
2023-04-30T07:02:08.869Z,70.78
2023-04-30T07:03:08.965Z,70.88
2023-04-30T07:04:08.910Z,70.69
2023-04-30T07:05:08.938Z,70.88
2023-04-30T07:06:09.022Z,70.59
2023-04-30T07:07:08.998Z,70.31
2023-04-30T07:08:09.028Z,70.44
2023-04-30T07:09:09.081Z,69.77
2023-04-30T07:10:09.083Z,69.74
2023-04-30T07:11:09.123Z,69.39
2023-04-30T07:12:09.155Z,69.20
2023-04-30T07:13:09.182Z,69.58
2023-04-30T07:14:09.247Z,69.58
2023-04-30T07:15:09.272Z,68.82
2023-04-30T07:16:09.312Z,68.44
2023-04-30T07:17:09.293Z,67.39
2023-04-30T07:18:09.359Z,67.48
2023-04-30T07:19:09.368Z,67.29
2023-04-30T07:20:09.383Z,67.20
2023-04-30T07:21:09.418Z,67.58
2023-04-30T07:22:09.461Z,67.04
2023-04-30T07:23:09.474Z,66.66
2023-04-30T07:24:09.562Z,66.34
2023-04-30T07:25:09.544Z,66.47
2023-04-30T07:26:09.564Z,67.10
2023-04-30T07:27:09.596Z,67.04
2023-04-30T07:28:09.629Z,67.23
2023-04-30T07:29:09.656Z,67.14
2023-04-30T07:30:09.695Z,65.99
2023-04-30T07:31:09.728Z,65.89
2023-04-30T07:32:09.747Z,65.42
2023-04-30T07:33:09.859Z,65.52
2023-04-30T07:34:09.805Z,65.42
2023-04-30T07:35:09.837Z,65.33
2023-04-30T07:36:09.870Z,64.75
2023-04-30T07:37:09.899Z,65.13
2023-04-30T07:38:09.928Z,64.85
2023-04-30T07:39:10.012Z,64.21
2023-04-30T07:40:10.102Z,63.70
2023-04-30T07:41:10.022Z,63.13
2023-04-30T07:42:10.058Z,63.23
2023-04-30T07:43:10.083Z,64.09
2023-04-30T07:44:10.117Z,64.50
2023-04-30T07:45:10.151Z,64.02
2023-04-30T07:46:10.194Z,64.21
2023-04-30T07:47:10.206Z,63.64
2023-04-30T07:48:10.286Z,62.88
2023-04-30T07:49:10.270Z,62.40
2023-04-30T07:50:10.299Z,61.35
2023-04-30T07:51:10.348Z,61.92
2023-04-30T07:52:10.388Z,61.16
2023-04-30T07:53:10.395Z,62.21
2023-04-30T07:54:10.423Z,61.92
2023-04-30T07:55:10.457Z,61.92
2023-04-30T07:56:10.485Z,62.88
2023-04-30T07:57:10.520Z,64.25
2023-04-30T07:58:10.552Z,63.76
2023-04-30T07:59:10.585Z,62.91
2023-04-30T08:00:10.615Z,61.29
2023-04-30T08:01:10.653Z,59.28
2023-04-30T08:02:10.716Z,59.22
2023-04-30T08:03:10.743Z,60.17
2023-04-30T08:04:10.897Z,59.31
2023-04-30T08:05:10.763Z,59.12
2023-04-30T08:06:10.841Z,59.12
2023-04-30T08:07:10.833Z,58.07
2023-04-30T08:08:10.867Z,57.43
2023-04-30T08:09:10.892Z,57.59
2023-04-30T08:10:10.933Z,56.73
2023-04-30T08:11:11.073Z,56.73
2023-04-30T08:12:11.093Z,56.73
2023-04-30T08:13:11.021Z,56.45
2023-04-30T08:14:11.049Z,56.16
2023-04-30T08:15:11.097Z,57.04
2023-04-30T08:16:11.165Z,56.76
2023-04-30T08:17:11.151Z,56.76
2023-04-30T08:18:11.225Z,57.14
2023-04-30T08:19:11.212Z,55.61
2023-04-30T08:20:11.240Z,55.23
2023-04-30T08:21:11.276Z,54.75
2023-04-30T08:22:11.299Z,54.37
2023-04-30T08:23:11.342Z,54.47
2023-04-30T08:24:11.362Z,54.97
2023-04-30T08:25:11.397Z,54.68
2023-04-30T08:26:11.429Z,54.39
2023-04-30T08:27:11.461Z,53.16
2023-04-30T08:28:11.514Z,52.67
2023-04-30T08:29:11.526Z,51.62
2023-04-30T08:30:11.558Z,51.62
2023-04-30T08:31:11.591Z,51.72
2023-04-30T08:32:11.713Z,50.86
2023-04-30T08:33:11.701Z,50.00
2023-04-30T08:34:11.684Z,50.67
2023-04-30T08:35:11.723Z,49.35
2023-04-30T08:36:11.750Z,49.23
2023-04-30T08:37:11.782Z,48.68
2023-04-30T08:38:11.814Z,48.88
2023-04-30T08:39:11.884Z,48.88
2023-04-30T08:40:11.874Z,48.59
2023-04-30T08:41:11.908Z,49.64
2023-04-30T08:42:11.940Z,48.59
2023-04-30T08:43:11.985Z,48.68
2023-04-30T08:44:12.006Z,48.59
2023-04-30T08:45:12.034Z,48.21
2023-04-30T08:46:12.142Z,47.34
2023-04-30T08:47:12.104Z,46.87
2023-04-30T08:48:12.133Z,46.67
2023-04-30T08:49:12.166Z,46.89
2023-04-30T08:50:12.198Z,47.27
2023-04-30T08:51:12.253Z,46.61
2023-04-30T08:52:12.259Z,46.98
2023-04-30T08:53:12.294Z,48.23
2023-04-30T08:54:12.349Z,48.04
2023-04-30T08:55:12.366Z,46.53
2023-04-30T08:56:12.406Z,45.94
2023-04-30T08:57:12.430Z,46.25
2023-04-30T08:58:12.456Z,45.67
2023-04-30T08:59:12.495Z,45.29
2023-04-30T09:00:12.541Z,44.90
2023-04-30T09:01:12.613Z,42.90
2023-04-30T09:02:12.768Z,42.60
2023-04-30T09:03:12.772Z,42.41
2023-04-30T09:04:12.688Z,42.51
2023-04-30T09:05:12.692Z,43.08
2023-04-30T09:06:12.755Z,42.90
2023-04-30T09:07:12.760Z,42.70
2023-04-30T09:08:12.792Z,43.27
2023-04-30T09:09:12.821Z,43.47
2023-04-30T09:10:12.855Z,43.27
2023-04-30T09:11:12.888Z,43.66
2023-04-30T09:12:12.920Z,43.27
2023-04-30T09:13:12.955Z,43.08
2023-04-30T09:14:12.987Z,42.91
2023-04-30T09:15:13.021Z,43.01
2023-04-30T09:16:13.090Z,42.63
2023-04-30T09:17:13.096Z,42.53
2023-04-30T09:18:13.188Z,42.82
2023-04-30T09:19:13.152Z,42.14
2023-04-30T09:20:13.211Z,42.24
2023-04-30T09:21:13.226Z,42.14
2023-04-30T09:22:13.250Z,42.24
2023-04-30T09:23:13.283Z,42.05
2023-04-30T09:24:13.316Z,41.78
2023-04-30T09:25:13.362Z,40.92
2023-04-30T09:26:13.388Z,40.83
2023-04-30T09:27:13.431Z,40.16
2023-04-30T09:28:13.459Z,39.20
2023-04-30T09:29:13.483Z,39.29
2023-04-30T09:30:13.517Z,38.14
2023-04-30T09:31:13.612Z,38.53
2023-04-30T09:32:13.587Z,38.62
2023-04-30T09:33:13.649Z,38.14
2023-04-30T09:34:13.653Z,38.05
2023-04-30T09:35:13.704Z,37.38
2023-04-30T09:36:13.723Z,35.94
2023-04-30T09:37:13.774Z,35.84
2023-04-30T09:38:13.813Z,35.73
2023-04-30T09:39:15.848Z,35.25
2023-04-30T09:40:13.915Z,35.63
2023-04-30T09:41:13.901Z,35.53
2023-04-30T09:42:14.122Z,36.22
2023-04-30T09:43:13.960Z,36.80
2023-04-30T09:44:13.987Z,36.90
2023-04-30T09:45:14.027Z,37.01
2023-04-30T09:46:14.166Z,36.82
2023-04-30T09:47:14.116Z,37.78
2023-04-30T09:48:17.549Z,41.04
2023-04-30T09:49:14.165Z,40.27
2023-04-30T09:50:14.190Z,40.87
2023-04-30T09:51:14.229Z,45.18
2023-04-30T09:52:14.279Z,42.30
2023-04-30T09:53:14.340Z,41.83
2023-04-30T09:54:14.351Z,41.37
2023-04-30T09:55:14.365Z,40.22
2023-04-30T09:56:14.416Z,41.46
2023-04-30T09:57:14.450Z,40.31
2023-04-30T09:58:14.467Z,41.75
2023-04-30T09:59:14.502Z,38.68
2023-04-30T10:00:14.536Z,39.16
2023-04-30T10:01:14.607Z,40.22
2023-04-30T10:02:14.616Z,38.87
2023-04-30T10:03:14.694Z,38.85
2023-04-30T10:04:14.713Z,39.73
2023-04-30T10:05:14.716Z,40.41
2023-04-30T10:06:14.777Z,40.60
2023-04-30T10:07:16.083Z,39.26
2023-04-30T10:08:14.807Z,37.32
2023-04-30T10:09:14.851Z,39.14
2023-04-30T10:10:14.906Z,40.12
2023-04-30T10:11:14.939Z,40.31
2023-04-30T10:12:14.976Z,40.41
2023-04-30T10:13:14.979Z,39.45
2023-04-30T10:14:15.021Z,38.79
2023-04-30T10:15:15.054Z,38.99
2023-04-30T10:16:15.114Z,39.08
2023-04-30T10:17:15.120Z,38.22
2023-04-30T10:18:15.207Z,39.39
2023-04-30T10:19:15.194Z,39.78
2023-04-30T10:20:15.265Z,39.68
2023-04-30T10:21:15.264Z,40.55
2023-04-30T10:22:15.310Z,39.49
2023-04-30T10:23:15.334Z,37.85
2023-04-30T10:24:15.360Z,36.90
2023-04-30T10:25:15.395Z,37.57
2023-04-30T10:26:15.430Z,39.31
2023-04-30T10:27:15.469Z,37.87
2023-04-30T10:28:15.601Z,37.97
2023-04-30T10:29:15.539Z,36.24
2023-04-30T10:30:15.572Z,35.85
2023-04-30T10:31:15.609Z,35.26
2023-04-30T10:32:15.715Z,37.27
2023-04-30T10:33:16.873Z,38.04
2023-04-30T10:34:15.725Z,38.84
2023-04-30T10:35:15.759Z,38.84
2023-04-30T10:36:15.803Z,37.20
2023-04-30T10:37:15.817Z,37.18
2023-04-30T10:38:15.852Z,37.37
2023-04-30T10:39:15.895Z,36.90
2023-04-30T10:40:15.919Z,34.86
2023-04-30T10:41:15.985Z,34.67
2023-04-30T10:42:15.990Z,34.47
2023-04-30T10:43:16.027Z,34.57
2023-04-30T10:44:16.064Z,34.67
2023-04-30T10:45:16.108Z,34.30
2023-04-30T10:46:16.220Z,34.88
2023-04-30T10:47:16.171Z,34.88
2023-04-30T10:48:16.271Z,34.78
2023-04-30T10:49:16.242Z,34.01
2023-04-30T10:50:16.276Z,33.53
2023-04-30T10:51:16.309Z,33.53
2023-04-30T10:52:16.457Z,33.82
2023-04-30T10:53:16.382Z,34.80
2023-04-30T10:54:16.424Z,35.38
2023-04-30T10:55:16.471Z,34.99
2023-04-30T10:56:16.506Z,34.51
2023-04-30T10:57:16.518Z,34.80
2023-04-30T10:58:16.565Z,35.20
2023-04-30T10:59:16.595Z,35.68
2023-04-30T11:00:16.634Z,35.68
2023-04-30T11:01:16.691Z,35.58
2023-04-30T11:02:16.695Z,35.77
2023-04-30T11:03:16.741Z,35.10
2023-04-30T11:04:16.837Z,35.39
2023-04-30T11:05:16.972Z,33.74
2023-04-30T11:06:16.879Z,33.62
2023-04-30T11:07:16.884Z,34.59
2023-04-30T11:08:16.914Z,34.59
2023-04-30T11:09:16.957Z,35.08
2023-04-30T11:10:16.985Z,35.28
2023-04-30T11:11:17.015Z,35.49
2023-04-30T11:12:17.053Z,35.77
2023-04-30T11:13:17.085Z,34.16
2023-04-30T11:14:17.128Z,32.51
2023-04-30T11:15:17.158Z,32.10
2023-04-30T11:16:17.267Z,32.95
2023-04-30T11:17:17.232Z,33.74
2023-04-30T11:18:17.264Z,33.53
2023-04-30T11:19:17.318Z,33.24
2023-04-30T11:20:17.344Z,33.53
2023-04-30T11:21:17.369Z,33.62
2023-04-30T11:22:17.410Z,33.34
2023-04-30T11:23:25.314Z,33.91
2023-04-30T11:24:17.482Z,34.97
2023-04-30T11:25:17.517Z,35.64
2023-04-30T11:26:17.549Z,35.36
2023-04-30T11:27:17.590Z,35.18
2023-04-30T11:28:17.626Z,34.51
2023-04-30T11:29:17.714Z,34.61
2023-04-30T11:30:17.704Z,33.64
2023-04-30T11:31:17.777Z,33.16
2023-04-30T11:32:17.866Z,33.16
2023-04-30T11:33:17.808Z,32.97
2023-04-30T11:34:17.839Z,32.49
2023-04-30T11:35:17.866Z,32.68
2023-04-30T11:36:17.904Z,32.68
2023-04-30T11:37:17.944Z,33.66
2023-04-30T11:38:17.989Z,34.23
2023-04-30T11:39:18.013Z,34.91
2023-04-30T11:40:18.049Z,35.70
2023-04-30T11:41:18.082Z,35.79
2023-04-30T11:42:18.117Z,35.41
2023-04-30T11:43:18.154Z,34.37
2023-04-30T11:44:18.196Z,34.27
2023-04-30T11:45:18.282Z,33.50
2023-04-30T11:46:18.311Z,32.54
2023-04-30T11:47:18.299Z,32.44
2023-04-30T11:48:18.330Z,33.02
2023-04-30T11:49:18.366Z,33.21
2023-04-30T11:50:18.407Z,34.37
2023-04-30T11:51:18.445Z,33.89
2023-04-30T11:52:18.484Z,33.40
2023-04-30T11:53:18.510Z,33.40
2023-04-30T11:54:18.567Z,33.71
2023-04-30T11:55:18.581Z,33.71
2023-04-30T11:56:18.645Z,33.42
2023-04-30T11:57:18.661Z,32.56
2023-04-30T11:58:18.689Z,31.49
2023-04-30T11:59:18.739Z,31.67
2023-04-30T12:00:18.766Z,31.96
2023-04-30T12:01:18.798Z,30.88
2023-04-30T12:02:18.867Z,31.56
2023-04-30T12:03:18.976Z,32.43
2023-04-30T12:04:18.925Z,33.58
2023-04-30T12:05:18.955Z,32.62
2023-04-30T12:06:19.024Z,32.52
2023-04-30T12:07:20.769Z,32.43
2023-04-30T12:08:19.050Z,33.12
2023-04-30T12:09:19.088Z,33.40
2023-04-30T12:10:19.123Z,33.59
2023-04-30T12:11:19.161Z,33.42
2023-04-30T12:12:19.198Z,33.61
2023-04-30T12:13:19.230Z,33.91
2023-04-30T12:14:19.274Z,33.63
2023-04-30T12:15:19.317Z,32.76
2023-04-30T12:16:19.365Z,33.34
2023-04-30T12:17:19.371Z,32.57
2023-04-30T12:18:19.408Z,33.15
2023-04-30T12:19:19.448Z,33.05
2023-04-30T12:20:19.487Z,32.38
2023-04-30T12:21:19.519Z,32.38
2023-04-30T12:22:19.558Z,31.32
2023-04-30T12:23:19.593Z,31.99
2023-04-30T12:24:19.634Z,32.57
2023-04-30T12:25:19.663Z,31.90
2023-04-30T12:26:19.711Z,31.80
2023-04-30T12:27:19.744Z,31.22
2023-04-30T12:28:19.870Z,31.41
2023-04-30T12:29:19.809Z,31.12
2023-04-30T12:30:19.850Z,30.55
2023-04-30T12:31:19.973Z,30.53
2023-04-30T12:32:20.155Z,30.91
2023-04-30T12:33:20.060Z,30.82
2023-04-30T12:34:19.991Z,30.90
2023-04-30T12:35:20.032Z,30.88
2023-04-30T12:36:20.075Z,31.48
2023-04-30T12:37:20.104Z,31.48
2023-04-30T12:38:20.154Z,32.34
2023-04-30T12:39:20.179Z,32.46
2023-04-30T12:40:20.214Z,32.46
2023-04-30T12:41:20.258Z,31.49
2023-04-30T12:42:20.285Z,31.40
2023-04-30T12:43:20.318Z,31.90
2023-04-30T12:44:20.365Z,31.90
2023-04-30T12:45:20.400Z,31.51
2023-04-30T12:46:20.486Z,31.70
2023-04-30T12:47:20.480Z,32.18
2023-04-30T12:48:20.506Z,32.09
2023-04-30T12:49:20.540Z,32.39
2023-04-30T12:50:20.580Z,32.39
2023-04-30T12:51:20.613Z,32.49
2023-04-30T12:52:20.648Z,32.59
2023-04-30T12:53:20.694Z,32.49
2023-04-30T12:54:20.722Z,32.41
2023-04-30T12:55:20.761Z,32.51
2023-04-30T12:56:20.792Z,32.21
2023-04-30T12:57:20.859Z,31.45
2023-04-30T12:58:20.870Z,30.76
2023-04-30T12:59:20.906Z,30.56
2023-04-30T13:00:20.945Z,30.85
2023-04-30T13:01:21.063Z,31.14
2023-04-30T13:02:21.084Z,31.43
2023-04-30T13:03:21.284Z,31.43
2023-04-30T13:04:21.086Z,31.25
2023-04-30T13:05:21.124Z,31.25
2023-04-30T13:06:21.195Z,31.62
2023-04-30T13:07:21.204Z,31.62
2023-04-30T13:08:21.246Z,31.93
2023-04-30T13:09:21.271Z,32.01
2023-04-30T13:10:21.315Z,31.35
2023-04-30T13:11:21.344Z,31.15
2023-04-30T13:12:21.404Z,31.24
2023-04-30T13:13:21.420Z,31.24
2023-04-30T13:14:21.461Z,31.24
2023-04-30T13:15:21.491Z,31.14
2023-04-30T13:16:21.581Z,31.14
2023-04-30T13:17:21.626Z,31.52
2023-04-30T13:18:21.613Z,31.72
2023-04-30T13:19:21.638Z,32.20
2023-04-30T13:20:21.676Z,31.54
2023-04-30T13:21:21.717Z,31.45
2023-04-30T13:22:21.765Z,31.35
2023-04-30T13:23:21.786Z,31.45
2023-04-30T13:24:21.827Z,31.06
2023-04-30T13:25:21.857Z,31.25
2023-04-30T13:26:21.942Z,31.15
2023-04-30T13:27:21.937Z,31.37
2023-04-30T13:28:21.977Z,31.65
2023-04-30T13:29:22.033Z,30.87
2023-04-30T13:30:22.055Z,30.38
2023-04-30T13:31:22.106Z,30.67
2023-04-30T13:32:22.139Z,30.87
2023-04-30T13:33:22.154Z,31.35
2023-04-30T13:34:22.197Z,30.87
2023-04-30T13:35:22.231Z,30.77
2023-04-30T13:36:22.270Z,30.58
2023-04-30T13:37:22.305Z,30.48
2023-04-30T13:38:22.348Z,30.48
2023-04-30T13:39:22.379Z,30.87
2023-04-30T13:40:22.419Z,30.69
2023-04-30T13:41:22.459Z,30.98
2023-04-30T13:42:22.492Z,30.69
2023-04-30T13:43:22.530Z,30.79
2023-04-30T13:44:22.573Z,30.69
2023-04-30T13:45:22.605Z,30.98
2023-04-30T13:46:22.699Z,31.37
2023-04-30T13:47:22.713Z,30.88
2023-04-30T13:48:22.829Z,30.49
2023-04-30T13:49:22.750Z,30.40
2023-04-30T13:50:22.791Z,29.63
2023-04-30T13:51:22.833Z,29.91
2023-04-30T13:52:22.869Z,30.01
2023-04-30T13:53:22.916Z,30.30
2023-04-30T13:54:22.951Z,30.30
2023-04-30T13:55:22.978Z,30.79
2023-04-30T13:56:23.013Z,30.59
2023-04-30T13:57:23.052Z,30.69
2023-04-30T13:58:23.087Z,30.98
2023-04-30T13:59:23.199Z,30.88
2023-04-30T14:00:23.166Z,31.07
2023-04-30T14:01:23.344Z,31.17
2023-04-30T14:02:23.294Z,31.45
2023-04-30T14:03:23.372Z,31.56
2023-04-30T14:04:23.319Z,31.65
2023-04-30T14:05:23.349Z,30.77
2023-04-30T14:06:23.464Z,30.38
2023-04-30T14:07:23.422Z,30.58